Time;durP1;ratioP1;P1;durP2;ratioP2;P2;SDS_P1;SDS_P2;PMS_P1;PMS_P2;Temp;Humidity;BMP_temperature;BMP_pressure;BME280_temperature;BME280_humidity;BME280_pressure;Samples;Min_cycle;Max_cycle;Signal;HPM_P1;HPM_P2
2022/12/22 03:26:00;;;;;;;1.30;1.20;;;9.70;99.90;;;;;;5033159;28;20428;-78
2022/12/22 03:28:28;;;;;;;1.30;1.15;;;9.70;99.90;;;;;;5031627;28;20425;-77
2022/12/22 03:30:57;;;;;;;2.17;1.20;;;9.70;99.90;;;;;;5029358;28;20434;-76
2022/12/22 03:33:26;;;;;;;1.52;1.30;;;9.70;99.90;;;;;;5020445;28;20435;-77
2022/12/22 03:35:52;;;;;;;2.05;1.42;;;9.70;99.90;;;;;;5036870;28;20447;-76
2022/12/22 03:38:20;;;;;;;1.40;1.20;;;9.70;99.90;;;;;;5030805;28;20440;-76
2022/12/22 03:40:47;;;;;;;1.83;1.50;;;9.70;99.90;;;;;;5020885;28;20442;-76
2022/12/22 03:51:32;;;;;;;1.70;1.60;;;9.70;99.90;;;;;;5029204;28;20597;-77
2022/12/22 03:53:59;;;;;;;1.45;1.35;;;9.70;99.90;;;;;;5028902;28;20411;-77
2022/12/22 03:56:26;;;;;;;2.20;1.90;;;9.70;99.90;;;;;;5035387;28;20425;-77
2022/12/22 03:58:52;;;;;;;2.50;2.08;;;9.70;99.90;;;;;;5039518;28;20456;-76
2022/12/22 04:01:19;;;;;;;3.17;2.20;;;9.70;99.90;;;;;;5030467;28;20433;-76
2022/12/22 04:03:46;;;;;;;2.30;2.10;;;9.70;99.90;;;;;;5031067;28;20762;-76
2022/12/22 04:06:14;;;;;;;2.38;2.17;;;9.70;99.90;;;;;;5034702;28;20436;-76
2022/12/22 04:08:41;;;;;;;2.30;2.10;;;9.70;99.90;;;;;;5040790;28;20444;-76
2022/12/22 04:13:53;;;;;;;2.60;2.40;;;9.80;99.90;;;;;;5038046;28;20524;-77
2022/12/22 04:16:20;;;;;;;2.60;2.40;;;9.80;99.90;;;;;;5026250;28;20438;-76
2022/12/22 04:18:46;;;;;;;2.30;2.20;;;9.80;99.90;;;;;;5037537;28;20890;-77
2022/12/22 04:21:14;;;;;;;2.60;2.40;;;9.80;99.90;;;;;;5028566;28;20454;-77
2022/12/22 04:23:41;;;;;;;1.70;1.60;;;9.80;99.90;;;;;;5030218;28;20415;-77
2022/12/22 04:26:08;;;;;;;1.50;1.00;;;9.90;99.90;;;;;;5032600;28;20440;-78
2022/12/22 04:28:35;;;;;;;1.40;0.80;;;9.90;99.90;;;;;;5033080;28;20490;-77
2022/12/22 04:31:02;;;;;;;1.70;0.80;;;9.90;99.90;;;;;;5029881;28;20449;-77
2022/12/22 04:33:28;;;;;;;0.90;0.60;;;9.90;99.90;;;;;;5041016;28;20418;-76
2022/12/22 04:35:55;;;;;;;0.70;0.50;;;10.00;99.90;;;;;;5043717;28;20759;-77
2022/12/22 04:38:23;;;;;;;1.35;0.70;;;10.00;99.90;;;;;;5046381;28;20435;-77
2022/12/22 04:40:50;;;;;;;1.25;0.80;;;10.00;99.90;;;;;;5037324;28;20496;-76
2022/12/22 04:43:17;;;;;;;1.33;0.90;;;9.90;99.90;;;;;;5043350;28;20449;-76
2022/12/22 04:45:44;;;;;;;1.10;0.80;;;9.90;99.90;;;;;;5040133;28;20804;-76
2022/12/22 04:48:11;;;;;;;1.10;1.00;;;9.90;99.90;;;;;;5037979;28;20438;-77
2022/12/22 04:50:38;;;;;;;1.30;0.90;;;9.90;99.90;;;;;;5040747;28;21159;-77
2022/12/22 04:53:05;;;;;;;1.42;1.00;;;9.90;99.90;;;;;;5029799;28;20438;-77
2022/12/22 04:55:33;;;;;;;1.60;1.10;;;9.90;99.90;;;;;;5028431;28;20434;-77
2022/12/22 04:58:00;;;;;;;1.50;1.40;;;9.80;99.90;;;;;;5032534;28;20433;-77
2022/12/22 05:00:26;;;;;;;2.00;1.30;;;9.80;99.90;;;;;;5031615;28;21096;-77
2022/12/22 05:02:53;;;;;;;1.80;1.37;;;9.80;99.90;;;;;;5032985;28;20437;-77
2022/12/22 05:05:20;;;;;;;1.50;1.40;;;9.80;99.90;;;;;;5044247;28;20518;-77
2022/12/22 05:07:47;;;;;;;2.30;1.65;;;9.90;99.90;;;;;;5020469;28;20444;-77
2022/12/22 05:10:13;;;;;;;2.38;1.80;;;9.90;99.90;;;;;;5026129;28;20433;-77
2022/12/22 05:12:57;;;;;;;2.22;1.80;;;9.80;99.90;;;;;;5018496;28;20430;-77
2022/12/22 05:15:25;;;;;;;2.30;1.92;;;9.90;99.90;;;;;;5012199;28;20534;-77
2022/12/22 05:17:52;;;;;;;2.40;2.00;;;9.90;99.90;;;;;;5025460;28;20431;-77
2022/12/22 05:20:19;;;;;;;3.22;2.00;;;9.90;99.90;;;;;;5030914;28;20431;-76
2022/12/22 05:22:46;;;;;;;2.50;1.87;;;9.90;99.90;;;;;;5019805;28;20462;-77
2022/12/22 05:25:15;;;;;;;3.30;2.20;;;9.80;99.90;;;;;;5029215;28;20432;-77
2022/12/22 05:27:43;;;;;;;2.50;2.00;;;9.80;99.90;;;;;;5030705;28;20438;-78
2022/12/22 05:30:11;;;;;;;2.95;2.20;;;9.80;99.90;;;;;;5019303;28;20460;-78
2022/12/22 05:32:38;;;;;;;2.70;2.10;;;9.80;99.90;;;;;;5029119;28;20431;-78
2022/12/22 05:35:06;;;;;;;2.40;2.00;;;9.80;99.90;;;;;;5033770;28;20785;-79
2022/12/22 05:37:33;;;;;;;2.85;2.10;;;9.80;99.90;;;;;;5021429;28;20936;-78
2022/12/22 05:40:00;;;;;;;2.60;2.40;;;9.80;99.90;;;;;;5016471;28;21105;-78
2022/12/22 05:45:14;;;;;;;3.40;3.08;;;9.80;99.90;;;;;;5022337;28;20508;-78
2022/12/22 05:47:41;;;;;;;4.10;3.22;;;9.80;99.90;;;;;;5022643;28;20545;-80
2022/12/22 05:50:10;;;;;;;3.60;3.30;;;9.80;99.90;;;;;;5028238;28;20443;-78
2022/12/22 05:52:36;;;;;;;3.75;3.35;;;9.80;99.90;;;;;;5039995;28;20513;-78
2022/12/22 05:55:04;;;;;;;3.70;3.30;;;9.80;99.90;;;;;;5035557;28;20445;-78
2022/12/22 05:57:30;;;;;;;4.10;3.70;;;9.70;99.90;;;;;;5040244;28;20437;-79
2022/12/22 05:59:57;;;;;;;3.80;3.40;;;9.80;99.90;;;;;;5037535;28;20487;-79
2022/12/22 06:02:25;;;;;;;5.40;4.90;;;9.80;99.90;;;;;;5039592;28;20497;-77
2022/12/22 06:04:52;;;;;;;6.47;5.80;;;9.80;99.90;;;;;;5037263;28;20453;-79
2022/12/22 06:07:19;;;;;;;4.82;4.43;;;9.80;99.90;;;;;;5044328;28;20462;-80
2022/12/22 06:09:45;;;;;;;5.38;4.88;;;9.80;99.90;;;;;;5048826;28;20439;-79
2022/12/22 06:12:13;;;;;;;4.22;3.92;;;9.80;99.90;;;;;;5031765;28;20448;-80
2022/12/22 06:14:40;;;;;;;5.30;4.80;;;9.70;99.90;;;;;;5034460;28;20438;-79
2022/12/22 06:17:06;;;;;;;6.10;5.05;;;9.80;99.90;;;;;;5037084;28;20535;-79
2022/12/22 06:19:34;;;;;;;5.60;5.10;;;9.80;99.90;;;;;;5034567;28;20435;-78
2022/12/22 06:22:01;;;;;;;5.20;4.70;;;9.80;99.90;;;;;;5036023;28;20454;-81
2022/12/22 06:24:28;;;;;;;5.47;4.97;;;9.80;99.90;;;;;;5028882;28;20432;-78
2022/12/22 06:26:55;;;;;;;5.60;5.10;;;9.80;99.90;;;;;;5034335;28;20455;-79
2022/12/22 06:29:22;;;;;;;6.38;5.40;;;9.80;99.90;;;;;;5027668;28;20481;-80
2022/12/22 06:31:49;;;;;;;6.30;5.70;;;9.80;99.90;;;;;;5038343;28;20446;-81
2022/12/22 06:34:16;;;;;;;6.50;5.80;;;9.80;99.90;;;;;;5029976;28;20464;-80
2022/12/22 06:36:44;;;;;;;7.60;6.80;;;9.90;99.90;;;;;;5044769;28;21077;-80
2022/12/22 06:39:11;;;;;;;6.40;5.78;;;9.80;99.90;;;;;;5046576;28;20435;-81
2022/12/22 06:44:23;;;;;;;7.63;6.93;;;9.80;99.90;;;;;;5046786;28;20420;-70
2022/12/22 06:46:49;;;;;;;7.32;6.65;;;9.80;99.90;;;;;;5047230;28;20440;-69
2022/12/22 06:49:16;;;;;;;7.68;7.07;;;9.90;99.90;;;;;;5047619;28;20413;-69
2022/12/22 06:51:44;;;;;;;7.90;7.10;;;9.90;99.90;;;;;;5054560;28;20513;-69
2022/12/22 06:54:11;;;;;;;8.00;7.30;;;9.90;99.90;;;;;;5054999;28;20440;-72
2022/12/22 06:56:38;;;;;;;8.63;7.82;;;9.90;99.90;;;;;;5049801;28;20452;-71
2022/12/22 06:59:04;;;;;;;7.80;7.13;;;10.00;99.90;;;;;;5057936;28;20425;-71
2022/12/22 07:01:31;;;;;;;8.23;7.53;;;10.00;99.90;;;;;;5051432;28;20484;-71
2022/12/22 07:03:58;;;;;;;9.35;8.55;;;10.00;99.90;;;;;;5049476;28;20439;-65
2022/12/22 07:06:25;;;;;;;9.80;9.00;;;10.10;99.90;;;;;;5042131;28;20433;-66
2022/12/22 07:08:53;;;;;;;9.38;8.55;;;10.20;99.90;;;;;;5047745;28;20437;-69
2022/12/22 07:11:20;;;;;;;8.48;7.78;;;10.20;99.90;;;;;;5044715;28;20952;-71
2022/12/22 07:13:46;;;;;;;8.20;7.60;;;10.20;99.90;;;;;;5043927;28;20440;-70
2022/12/22 07:16:13;;;;;;;7.80;7.10;;;10.10;99.90;;;;;;5038100;28;20914;-71
2022/12/22 07:18:42;;;;;;;8.77;7.97;;;10.10;99.90;;;;;;5046903;28;20426;-71
2022/12/22 07:21:10;;;;;;;8.77;7.97;;;10.00;99.90;;;;;;5050720;28;20424;-70
2022/12/22 07:23:38;;;;;;;9.00;8.20;;;10.00;99.90;;;;;;5040936;28;20441;-69
2022/12/22 07:26:08;;;;;;;8.93;8.15;;;10.00;99.90;;;;;;5047636;28;20427;-69
2022/12/22 07:28:36;;;;;;;9.20;8.40;;;10.00;99.90;;;;;;5046126;28;20918;-69
2022/12/22 07:31:04;;;;;;;9.18;8.38;;;10.00;99.90;;;;;;5052201;28;20443;-70
2022/12/22 07:33:31;;;;;;;9.35;8.45;;;10.00;99.90;;;;;;5040311;28;20439;-70
2022/12/22 07:36:05;;;;;;;9.00;8.20;;;10.00;99.90;;;;;;5054827;28;20458;-69
2022/12/22 07:38:34;;;;;;;8.70;7.95;;;10.00;99.90;;;;;;5045367;28;20436;-70
2022/12/22 07:41:01;;;;;;;9.40;8.50;;;10.00;99.90;;;;;;5050120;28;20873;-70
2022/12/22 07:43:28;;;;;;;9.60;8.70;;;10.00;99.90;;;;;;5058481;28;20417;-71
2022/12/22 07:45:58;;;;;;;9.80;8.80;;;10.00;99.90;;;;;;5047601;28;20455;-70
2022/12/22 07:51:09;;;;;;;10.60;9.60;;;10.00;99.90;;;;;;5049262;28;20466;-71
2022/12/22 07:53:36;;;;;;;10.63;9.60;;;10.00;99.90;;;;;;5040885;28;20434;-72
2022/12/22 07:56:04;;;;;;;10.60;9.60;;;10.00;99.90;;;;;;5039102;28;20425;-71
2022/12/22 07:58:33;;;;;;;12.23;9.65;;;10.00;99.90;;;;;;5034421;28;20440;-70
2022/12/22 08:01:01;;;;;;;10.77;9.67;;;9.90;99.90;;;;;;5032316;28;20441;-70
2022/12/22 08:03:28;;;;;;;10.90;9.68;;;10.00;99.90;;;;;;5050050;28;20432;-71
2022/12/22 08:05:54;;;;;;;11.75;10.35;;;10.00;99.90;;;;;;5055977;28;20429;-71
2022/12/22 08:08:21;;;;;;;10.10;9.00;;;10.00;99.90;;;;;;5044379;28;20431;-70
2022/12/22 08:10:48;;;;;;;11.43;9.85;;;10.00;99.90;;;;;;5047574;28;20433;-70
2022/12/22 08:13:15;;;;;;;11.40;10.20;;;10.00;99.90;;;;;;5050544;28;20909;-70
2022/12/22 08:15:43;;;;;;;11.07;9.88;;;10.00;99.90;;;;;;5053671;28;20417;-70
2022/12/22 08:18:10;;;;;;;11.20;9.70;;;10.00;99.90;;;;;;5046491;28;20433;-70
2022/12/22 08:20:38;;;;;;;10.48;9.40;;;10.00;99.90;;;;;;5050252;28;20435;-70
2022/12/22 08:23:05;;;;;;;10.32;8.90;;;10.00;99.90;;;;;;5049319;28;20439;-71
2022/12/22 08:25:33;;;;;;;10.52;9.10;;;10.00;99.90;;;;;;5046163;28;20799;-71
2022/12/22 08:28:01;;;;;;;10.18;8.80;;;10.00;99.90;;;;;;5049344;28;20431;-71
2022/12/22 08:30:28;;;;;;;9.60;8.68;;;10.00;99.90;;;;;;5041234;28;20448;-70
2022/12/22 08:32:56;;;;;;;10.15;9.05;;;10.10;99.90;;;;;;5046777;28;20929;-70
2022/12/22 08:35:23;;;;;;;9.70;8.80;;;10.10;99.90;;;;;;5046034;28;20956;-71
2022/12/22 08:37:51;;;;;;;9.60;8.60;;;10.10;99.90;;;;;;5048685;28;20431;-69
2022/12/22 08:40:21;;;;;;;9.45;8.45;;;10.10;99.90;;;;;;5045896;28;20962;-70
2022/12/22 08:42:50;;;;;;;9.93;8.93;;;10.10;99.90;;;;;;5049375;28;20434;-69
2022/12/22 08:45:17;;;;;;;10.52;9.30;;;10.10;99.90;;;;;;5049374;28;20434;-70
2022/12/22 08:47:43;;;;;;;10.88;9.80;;;10.10;99.90;;;;;;5055686;28;20429;-70
2022/12/22 08:50:12;;;;;;;11.27;10.18;;;10.10;99.90;;;;;;5047358;28;21087;-70
2022/12/22 08:52:39;;;;;;;12.65;11.45;;;10.10;99.90;;;;;;5054186;28;20433;-70
2022/12/22 08:55:07;;;;;;;12.80;11.52;;;10.20;99.90;;;;;;5053059;28;20804;-70
2022/12/22 08:57:34;;;;;;;12.82;11.52;;;10.10;99.90;;;;;;5048444;28;20436;-69
2022/12/22 09:00:01;;;;;;;13.00;11.70;;;10.20;99.90;;;;;;5052032;28;20552;-71
2022/12/22 09:02:28;;;;;;;12.80;11.60;;;10.20;99.90;;;;;;5044424;28;20464;-70
2022/12/22 09:04:54;;;;;;;13.38;12.07;;;10.20;99.90;;;;;;5052450;28;20441;-70
2022/12/22 09:07:23;;;;;;;13.75;12.45;;;10.20;99.90;;;;;;5047709;28;20429;-69
2022/12/22 09:09:49;;;;;;;13.65;12.35;;;10.20;99.90;;;;;;5052663;28;20426;-69
2022/12/22 09:12:16;;;;;;;14.00;12.45;;;10.30;99.90;;;;;;5053057;28;20429;-70
2022/12/22 09:14:43;;;;;;;13.70;12.30;;;10.20;99.90;;;;;;5046844;28;20458;-70
2022/12/22 09:17:10;;;;;;;13.70;12.30;;;10.30;99.90;;;;;;5043031;28;20467;-69
2022/12/22 09:19:37;;;;;;;14.77;13.18;;;10.30;99.90;;;;;;5050156;28;20466;-75
2022/12/22 09:22:05;;;;;;;14.13;12.73;;;10.30;99.90;;;;;;5060914;28;20424;-70
2022/12/22 09:24:33;;;;;;;15.20;13.73;;;10.30;99.90;;;;;;5059514;28;20917;-72
2022/12/22 09:27:02;;;;;;;15.95;14.45;;;10.30;99.90;;;;;;5054371;28;20443;-72
2022/12/22 09:29:28;;;;;;;17.02;15.30;;;10.30;99.90;;;;;;5054973;28;20458;-72
2022/12/22 09:31:55;;;;;;;60.45;54.92;;;10.30;99.90;;;;;;5049088;28;20433;-72
2022/12/22 09:34:22;;;;;;;20.98;18.98;;;10.30;99.90;;;;;;5052174;28;20439;-70
2022/12/22 09:36:49;;;;;;;16.45;14.65;;;10.30;99.90;;;;;;5055299;28;20432;-70
2022/12/22 09:39:16;;;;;;;14.82;13.52;;;10.30;99.90;;;;;;5055400;28;20538;-70
2022/12/22 09:41:46;;;;;;;15.82;14.32;;;10.30;99.90;;;;;;5048910;28;20800;-69
2022/12/22 09:44:21;;;;;;;16.30;14.70;;;10.30;99.90;;;;;;5053904;28;20438;-70
2022/12/22 09:46:48;;;;;;;15.23;13.73;;;10.30;99.90;;;;;;5039628;28;20446;-70
2022/12/22 09:49:18;;;;;;;16.60;14.90;;;10.20;99.90;;;;;;5041357;28;20444;-70
2022/12/22 09:51:49;;;;;;;17.27;15.77;;;10.20;99.90;;;;;;5042693;28;20843;-69
2022/12/22 09:54:16;;;;;;;16.10;14.50;;;10.20;99.90;;;;;;5054037;28;20412;-73
2022/12/22 09:56:44;;;;;;;17.27;15.77;;;10.30;99.90;;;;;;5046976;28;20440;-71
2022/12/22 09:59:13;;;;;;;18.20;15.98;;;10.30;99.90;;;;;;5048512;28;20884;-71
2022/12/22 10:01:54;;;;;;;17.30;15.60;;;10.30;99.90;;;;;;5042059;28;20431;-71
2022/12/22 10:04:35;;;;;;;15.95;14.40;;;10.30;99.90;;;;;;5043699;28;20433;-70
2022/12/22 10:07:14;;;;;;;16.83;15.23;;;10.30;99.90;;;;;;5045195;28;20540;-71
2022/12/22 10:09:41;;;;;;;16.90;15.20;;;10.30;99.90;;;;;;5056842;28;20520;-71
2022/12/22 10:12:14;;;;;;;17.03;15.43;;;10.30;99.90;;;;;;5049303;28;20537;-70
2022/12/22 10:14:43;;;;;;;17.90;16.20;;;10.30;99.90;;;;;;5048665;28;20417;-70
2022/12/22 10:17:18;;;;;;;18.45;16.75;;;10.40;99.90;;;;;;5047744;28;20431;-70
2022/12/22 10:19:46;;;;;;;18.20;16.30;;;10.40;99.90;;;;;;5052502;28;20887;-72
2022/12/22 10:22:25;;;;;;;17.35;15.57;;;10.40;99.90;;;;;;5054313;28;20440;-72
2022/12/22 10:24:51;;;;;;;16.73;15.02;;;10.30;99.90;;;;;;5047932;28;20433;-70
2022/12/22 10:27:21;;;;;;;17.40;14.70;;;10.30;99.90;;;;;;5046953;28;21097;-70
2022/12/22 10:29:48;;;;;;;16.40;14.25;;;10.30;99.90;;;;;;5049094;28;20457;-70
2022/12/22 10:32:17;;;;;;;15.70;14.00;;;10.30;99.90;;;;;;5044441;28;20426;-70
2022/12/22 10:34:59;;;;;;;14.70;13.20;;;10.30;99.90;;;;;;5050350;28;20444;-70
2022/12/22 10:37:33;;;;;;;14.75;13.02;;;10.40;99.90;;;;;;5046723;28;21006;-70
2022/12/22 10:40:12;;;;;;;14.80;13.20;;;10.40;99.90;;;;;;5048449;28;20480;-70
2022/12/22 10:42:44;;;;;;;14.52;13.02;;;10.40;99.90;;;;;;5062918;28;20518;-70
2022/12/22 10:45:18;;;;;;;14.98;13.57;;;10.40;99.90;;;;;;5045544;28;20438;-71
2022/12/22 10:47:48;;;;;;;14.35;12.90;;;10.40;99.90;;;;;;5053789;28;20953;-70
2022/12/22 10:50:15;;;;;;;14.45;12.98;;;10.40;99.90;;;;;;5040436;28;21052;-71
2022/12/22 10:52:50;;;;;;;15.00;13.40;;;10.40;99.90;;;;;;5047586;28;20441;-70
2022/12/22 10:55:21;;;;;;;14.70;13.20;;;10.40;99.90;;;;;;5038508;28;20428;-70
2022/12/22 10:57:49;;;;;;;14.68;13.18;;;10.40;99.90;;;;;;5048167;28;20440;-71
2022/12/22 11:00:25;;;;;;;14.40;13.00;;;10.50;99.90;;;;;;5049031;28;20430;-72
2022/12/22 11:02:53;;;;;;;14.80;13.30;;;10.50;99.90;;;;;;5047525;28;20429;-72
2022/12/22 11:05:20;;;;;;;14.00;12.60;;;10.60;99.90;;;;;;5051348;28;20433;-72
2022/12/22 11:07:47;;;;;;;13.80;12.50;;;10.60;99.90;;;;;;5044074;28;20943;-72
2022/12/22 11:10:22;;;;;;;13.70;12.48;;;10.60;99.90;;;;;;5047381;28;20436;-70
2022/12/22 11:13:24;;;;;;;13.10;11.80;;;10.60;99.90;;;;;;5054594;28;20433;-72
2022/12/22 11:15:58;;;;;;;12.40;11.20;;;10.70;99.90;;;;;;5036913;28;20429;-71
2022/12/22 11:18:49;;;;;;;11.55;10.35;;;10.90;99.90;;;;;;5040565;28;20433;-71
2022/12/22 11:21:21;;;;;;;10.90;9.90;;;11.00;99.90;;;;;;5047120;28;20438;-72
2022/12/22 11:23:57;;;;;;;10.25;9.25;;;11.20;99.90;;;;;;5043947;28;20413;-72
2022/12/22 11:26:36;;;;;;;10.27;9.27;;;11.30;99.90;;;;;;5053031;28;20448;-72
2022/12/22 11:29:21;;;;;;;10.23;9.23;;;11.40;99.90;;;;;;5038469;28;20427;-70
2022/12/22 11:32:05;;;;;;;9.30;8.40;;;11.40;99.20;;;;;;5043398;28;20436;-73
2022/12/22 11:34:47;;;;;;;9.80;8.77;;;11.30;97.80;;;;;;5067272;28;20990;-72
2022/12/22 11:37:28;;;;;;;9.52;8.63;;;11.20;98.30;;;;;;5044775;28;20429;-74
2022/12/22 11:40:03;;;;;;;10.63;9.53;;;11.10;98.40;;;;;;5058268;28;20428;-74
2022/12/22 11:42:52;;;;;;;10.70;9.60;;;11.10;98.70;;;;;;5061865;28;20423;-73
2022/12/22 11:45:36;;;;;;;11.13;10.13;;;11.10;97.70;;;;;;5044750;28;20429;-74
2022/12/22 11:48:14;;;;;;;11.37;10.27;;;10.90;98.30;;;;;;5052283;28;21073;-73
2022/12/22 11:50:45;;;;;;;11.63;10.50;;;10.90;98.50;;;;;;5047706;28;20432;-73
2022/12/22 11:53:39;;;;;;;12.38;11.10;;;10.80;98.50;;;;;;5048184;28;20417;-73
2022/12/22 11:56:19;;;;;;;12.27;10.98;;;10.70;98.80;;;;;;5055350;28;20411;-74
2022/12/22 11:59:06;;;;;;;12.48;11.23;;;10.60;98.90;;;;;;5056385;28;20428;-73
2022/12/22 12:01:54;;;;;;;12.65;11.35;;;10.60;99.20;;;;;;5037627;28;20804;-73
2022/12/22 12:04:58;;;;;;;12.67;11.30;;;10.60;99.80;;;;;;5051107;28;20468;-73
2022/12/22 12:07:29;;;;;;;12.50;11.20;;;10.90;99.80;;;;;;5044650;28;20418;-72
2022/12/22 12:10:06;;;;;;;11.03;10.03;;;11.20;98.80;;;;;;5054245;28;20423;-72
2022/12/22 12:12:42;;;;;;;11.07;9.98;;;11.90;97.80;;;;;;5058611;28;20429;-72
2022/12/22 12:15:23;;;;;;;12.27;11.07;;;12.40;97.50;;;;;;5085029;28;20431;-72
2022/12/22 12:18:09;;;;;;;10.00;9.00;;;13.10;97.20;;;;;;5065052;28;20425;-72
2022/12/22 12:20:47;;;;;;;9.60;8.70;;;13.60;93.10;;;;;;5071542;28;20433;-71
2022/12/22 12:23:35;;;;;;;10.00;9.05;;;13.90;91.50;;;;;;5076121;28;20455;-71
2022/12/22 12:26:41;;;;;;;9.40;8.50;;;14.20;89.60;;;;;;5075784;28;20424;-71
2022/12/22 12:29:16;;;;;;;8.30;7.60;;;14.40;85.50;;;;;;5079411;28;20504;-72
2022/12/22 12:31:48;;;;;;;7.90;7.10;;;14.20;83.40;;;;;;5059968;28;20780;-70
2022/12/22 12:34:20;;;;;;;8.07;7.38;;;14.20;80.30;;;;;;5058631;28;21102;-71
2022/12/22 12:36:51;;;;;;;7.43;6.72;;;14.00;80.10;;;;;;5063427;28;20427;-72
2022/12/22 12:39:25;;;;;;;6.20;5.60;;;13.80;82.60;;;;;;5075416;28;20427;-71
2022/12/22 12:44:33;;;;;;;7.20;6.50;;;13.10;80.00;;;;;;5081323;28;20445;-77
2022/12/22 12:47:20;;;;;;;7.60;6.90;;;12.60;82.10;;;;;;5079571;28;20431;-78
2022/12/22 12:50:05;;;;;;;8.77;7.97;;;12.50;84.00;;;;;;5079535;28;20923;-75
2022/12/22 12:53:05;;;;;;;7.38;6.78;;;12.60;85.30;;;;;;5087111;28;20406;-77
2022/12/22 12:55:34;;;;;;;7.95;7.15;;;12.70;84.10;;;;;;5086708;28;20891;-78
2022/12/22 12:58:03;;;;;;;7.85;6.93;;;12.80;83.80;;;;;;5081287;28;20427;-79
2022/12/22 13:00:45;;;;;;;13.00;7.95;;;12.70;85.90;;;;;;5086705;28;20490;-77
2022/12/22 13:03:36;;;;;;;19.95;7.82;;;12.50;85.30;;;;;;5081080;28;20461;-77
2022/12/22 13:06:06;;;;;;;8.10;7.00;;;12.10;87.10;;;;;;5074841;28;20431;-76
2022/12/22 13:08:55;;;;;;;8.48;7.65;;;11.90;88.60;;;;;;5086211;28;20424;-77
2022/12/22 13:11:34;;;;;;;8.27;7.40;;;11.70;89.40;;;;;;5081834;28;20461;-76
2022/12/22 13:14:01;;;;;;;8.63;7.93;;;11.60;90.40;;;;;;5083950;28;20406;-76
2022/12/22 13:16:35;;;;;;;8.60;7.80;;;11.60;90.70;;;;;;5081611;28;20460;-76
2022/12/22 13:19:10;;;;;;;8.27;6.65;;;11.60;90.70;;;;;;5080142;28;20434;-77
2022/12/22 13:21:44;;;;;;;7.10;6.00;;;11.50;89.50;;;;;;5072832;28;20423;-76
2022/12/22 13:24:27;;;;;;;6.63;5.93;;;11.50;90.10;;;;;;5084637;28;20880;-76
2022/12/22 13:26:55;;;;;;;7.00;6.05;;;11.40;88.40;;;;;;5082547;28;20500;-76
2022/12/22 13:29:29;;;;;;;7.15;5.90;;;11.20;91.00;;;;;;5088428;28;20425;-77
2022/12/22 13:32:00;;;;;;;6.25;5.65;;;10.90;91.50;;;;;;5087578;28;20429;-76
2022/12/22 13:34:40;;;;;;;6.80;5.25;;;10.70;91.50;;;;;;5085902;28;20486;-77
2022/12/22 13:37:20;;;;;;;6.45;5.75;;;10.50;91.60;;;;;;5086514;28;20438;-76
2022/12/22 13:40:08;;;;;;;6.63;6.10;;;10.40;92.80;;;;;;5084444;28;20422;-76
2022/12/22 13:42:38;;;;;;;6.90;6.25;;;10.40;92.90;;;;;;5086934;28;20418;-76
2022/12/22 13:45:12;;;;;;;6.55;5.95;;;10.50;92.50;;;;;;5087577;28;20533;-77
2022/12/22 13:47:41;;;;;;;7.63;6.15;;;10.50;92.00;;;;;;5080075;28;21096;-76
2022/12/22 13:50:16;;;;;;;7.82;7.03;;;10.60;92.20;;;;;;5086286;28;20513;-77
2022/12/22 13:52:45;;;;;;;7.10;6.40;;;10.70;92.20;;;;;;5086575;28;20443;-77
2022/12/22 13:55:15;;;;;;;7.13;6.43;;;10.80;92.70;;;;;;5088756;28;20418;-77
2022/12/22 13:57:42;;;;;;;7.47;6.20;;;10.90;91.60;;;;;;5088000;28;20445;-76
2022/12/22 14:00:19;;;;;;;6.88;6.18;;;11.10;92.00;;;;;;5080225;28;20911;-76
2022/12/22 14:02:45;;;;;;;7.00;6.40;;;11.10;91.50;;;;;;5076713;28;20441;-77
2022/12/22 14:05:14;;;;;;;7.10;6.50;;;11.20;92.00;;;;;;5082834;28;20436;-77
2022/12/22 14:07:41;;;;;;;7.03;6.32;;;11.30;91.20;;;;;;5088273;28;20452;-77
2022/12/22 14:10:11;;;;;;;8.85;7.10;;;11.30;91.70;;;;;;5082186;28;20490;-77
2022/12/22 14:12:41;;;;;;;7.20;6.60;;;11.40;91.50;;;;;;5077588;28;20777;-79
2022/12/22 14:15:17;;;;;;;8.13;7.43;;;11.50;91.20;;;;;;5085313;28;20426;-77
2022/12/22 14:17:44;;;;;;;7.75;7.05;;;11.50;90.90;;;;;;5071746;28;20936;-75
2022/12/22 14:20:19;;;;;;;7.53;6.82;;;11.50;91.20;;;;;;5083746;28;20537;-78
2022/12/22 14:22:51;;;;;;;8.18;7.07;;;11.50;90.60;;;;;;5084751;28;20671;-76
2022/12/22 14:25:25;;;;;;;8.00;7.30;;;11.40;91.00;;;;;;5081299;28;20800;-77
2022/12/22 14:27:54;;;;;;;8.38;7.60;;;11.30;91.50;;;;;;5087056;28;20430;-77
2022/12/22 14:30:23;;;;;;;8.10;7.30;;;11.30;91.50;;;;;;5085457;28;20498;-77
2022/12/22 14:32:53;;;;;;;9.15;7.75;;;11.30;91.60;;;;;;5084436;28;20944;-77
2022/12/22 14:35:28;;;;;;;7.78;7.07;;;11.20;91.80;;;;;;5087290;28;20491;-76
2022/12/22 14:38:07;;;;;;;6.55;6.00;;;11.20;91.70;;;;;;5077942;28;20445;-76
2022/12/22 14:40:37;;;;;;;7.00;6.40;;;11.20;91.40;;;;;;5085917;28;20512;-76
2022/12/22 14:43:09;;;;;;;6.18;5.57;;;11.10;92.00;;;;;;5086048;28;20425;-76
2022/12/22 14:45:36;;;;;;;6.40;5.80;;;11.10;91.70;;;;;;5089324;28;20427;-76
2022/12/22 14:48:09;;;;;;;6.65;5.50;;;11.10;91.50;;;;;;5091080;28;20452;-76
2022/12/22 14:50:38;;;;;;;6.03;5.53;;;11.00;91.30;;;;;;5093108;28;20885;-76
2022/12/22 14:53:06;;;;;;;5.20;4.70;;;11.00;91.80;;;;;;5096026;28;20472;-76
2022/12/22 14:55:37;;;;;;;4.85;4.45;;;10.90;91.40;;;;;;5096437;28;20434;-76
2022/12/22 14:58:11;;;;;;;4.50;4.10;;;10.80;91.70;;;;;;5082883;28;20476;-76
2022/12/22 15:00:39;;;;;;;5.15;4.75;;;10.80;91.60;;;;;;5092163;28;20552;-76
2022/12/22 15:03:22;;;;;;;5.40;4.90;;;10.80;91.60;;;;;;5096635;28;20486;-76
2022/12/22 15:05:49;;;;;;;6.65;5.60;;;10.70;92.10;;;;;;5092676;28;20538;-76
2022/12/22 15:08:37;;;;;;;7.30;6.60;;;10.70;92.50;;;;;;5094762;28;20408;-76
2022/12/22 15:11:09;;;;;;;7.25;6.65;;;10.70;93.10;;;;;;5082772;28;20427;-77
2022/12/22 15:13:36;;;;;;;8.05;7.32;;;10.60;93.30;;;;;;5084587;28;20930;-77
2022/12/22 15:16:03;;;;;;;7.90;7.20;;;10.60;93.70;;;;;;5089867;28;20430;-78
2022/12/22 15:18:33;;;;;;;7.50;6.85;;;10.50;93.60;;;;;;5087184;28;20509;-78
2022/12/22 15:20:59;;;;;;;8.23;7.43;;;10.50;93.70;;;;;;5087045;28;20549;-78
2022/12/22 15:23:26;;;;;;;7.88;7.18;;;10.40;93.80;;;;;;5082809;28;20437;-81
2022/12/22 15:25:53;;;;;;;8.38;7.68;;;10.40;94.20;;;;;;5086549;28;20505;-82
2022/12/22 15:28:21;;;;;;;9.20;8.20;;;10.40;94.50;;;;;;5089777;28;20530;-83
2022/12/22 15:30:48;;;;;;;9.80;8.90;;;10.40;94.60;;;;;;5082206;28;20449;-80
2022/12/22 15:33:16;;;;;;;9.68;8.77;;;10.40;94.70;;;;;;5087134;28;20458;-77
2022/12/22 15:35:44;;;;;;;9.98;9.07;;;10.40;94.80;;;;;;5092025;28;20891;-78
2022/12/22 15:38:14;;;;;;;9.40;8.60;;;10.40;94.90;;;;;;5092222;28;20525;-77
2022/12/22 15:40:41;;;;;;;10.40;9.50;;;10.40;95.00;;;;;;5091865;28;20509;-77
2022/12/22 15:43:08;;;;;;;9.40;8.50;;;10.40;95.10;;;;;;5089760;28;20440;-77
2022/12/22 15:45:36;;;;;;;9.80;8.88;;;10.50;94.90;;;;;;5088895;28;20874;-77
2022/12/22 15:48:04;;;;;;;10.15;9.15;;;10.40;94.70;;;;;;5091104;28;20463;-77
2022/12/22 15:50:36;;;;;;;10.32;9.43;;;10.50;95.10;;;;;;5089805;28;20433;-77
2022/12/22 15:53:04;;;;;;;10.25;9.45;;;10.50;95.30;;;;;;5087826;28;20855;-77
2022/12/22 15:55:31;;;;;;;10.35;9.35;;;10.40;95.20;;;;;;5082943;28;21005;-78
2022/12/22 15:57:59;;;;;;;10.30;9.38;;;10.40;95.40;;;;;;5080872;28;20433;-78
2022/12/22 16:00:26;;;;;;;10.35;9.45;;;10.40;95.50;;;;;;5084979;28;20414;-78
2022/12/22 16:02:54;;;;;;;10.07;9.07;;;10.30;95.50;;;;;;5087629;28;20427;-79
2022/12/22 16:05:21;;;;;;;9.98;9.02;;;10.30;96.00;;;;;;5078602;28;20425;-78
2022/12/22 16:07:48;;;;;;;10.13;9.13;;;10.30;96.00;;;;;;5087540;28;20590;-78
2022/12/22 16:10:22;;;;;;;10.40;9.43;;;10.30;96.20;;;;;;5087528;28;20526;-78
2022/12/22 16:12:53;;;;;;;10.10;9.27;;;10.20;96.40;;;;;;5083541;28;20440;-78
2022/12/22 16:15:20;;;;;;;9.82;8.93;;;10.20;96.50;;;;;;5072904;28;20576;-75
2022/12/22 16:17:47;;;;;;;11.80;9.73;;;10.20;96.60;;;;;;5085511;28;20803;-78
2022/12/22 16:20:15;;;;;;;10.73;9.80;;;10.20;96.60;;;;;;5075883;28;20609;-77
2022/12/22 16:22:42;;;;;;;10.15;9.25;;;10.20;96.90;;;;;;5081569;28;20550;-78
2022/12/22 16:25:14;;;;;;;10.15;9.13;;;10.20;97.30;;;;;;5086751;28;20420;-77
2022/12/22 16:27:41;;;;;;;9.95;9.05;;;10.10;97.40;;;;;;5095192;28;20422;-77
2022/12/22 16:30:15;;;;;;;9.05;8.23;;;10.10;97.50;;;;;;5091010;28;20492;-77
2022/12/22 16:32:43;;;;;;;10.30;8.75;;;10.10;97.70;;;;;;5088214;28;20429;-77
2022/12/22 16:35:16;;;;;;;7.97;7.22;;;10.10;97.80;;;;;;5106029;28;20520;-78
2022/12/22 16:37:44;;;;;;;7.27;6.67;;;10.10;97.50;;;;;;5082178;28;20430;-77
2022/12/22 16:40:11;;;;;;;6.45;5.95;;;10.10;97.60;;;;;;5097623;28;20430;-77
2022/12/22 16:42:40;;;;;;;5.37;4.90;;;10.10;97.40;;;;;;5108912;28;20470;-75
2022/12/22 16:45:17;;;;;;;6.50;5.05;;;10.20;97.10;;;;;;5107373;28;20410;-76
2022/12/22 16:47:44;;;;;;;4.50;4.10;;;10.30;96.70;;;;;;5090369;28;20410;-77